Mesures en temps réel :

Wind Speed:
CloudBase:
Pressure:

Données extraites du METAR (ESSEY) :


Ephéméride:

Dernière MàJ: 23/09/2020, 04:34:02.
 (Attention : horaires donnés en heure LOCALE, déjà corrigée hiver/été. Pour UTC, retrancher 2H).
Heure du lever aéronautique (-6°):06:41:48
Heure du lever standard:07:14:34


Heure du coucher standard:19:18:24
Heure du coucher aéronautique (-6°):19:51:04


 source: http://vo.imcce.fr/webservices/miriade/

Mesures récentes

5 dernières minutes : Vitesse moyenne : 2.9 m/s | Rafales : 4.7 m/s | Direction moyenne : 224 °




METAR (LFSN - Nancy ESSEY)


LFSN 230830Z AUTO 22009KT 190V250 9999 SCT020 19/14 Q1010
Cloudbase :2000ft

Prévision WINDY

Prévision WINDGURU

Images satellite sat24.com